sensor_id;sensor_type;location;lat;lon;timestamp;pressure;altitude;pressure_sealevel;temperature;humidity
70127;BME280;57491;42.694;23.314;2023-05-13T00:01:58;95518.09;;;10.11;65.62
70127;BME280;57491;42.694;23.314;2023-05-13T00:04:25;95530.75;;;10.22;66.97
70127;BME280;57491;42.694;23.314;2023-05-13T00:06:52;95528.66;;;10.18;64.98
70127;BME280;57491;42.694;23.314;2023-05-13T00:09:19;95540.16;;;10.32;66.53
70127;BME280;57491;42.694;23.314;2023-05-13T00:11:48;95552.16;;;10.41;64.42
70127;BME280;57491;42.694;23.314;2023-05-13T00:14:14;95552.31;;;10.55;64.95
70127;BME280;57491;42.694;23.314;2023-05-13T00:16:43;95562.00;;;10.69;65.03
70127;BME280;57491;42.694;23.314;2023-05-13T00:19:11;95561.31;;;10.84;63.22
70127;BME280;57491;42.694;23.314;2023-05-13T00:21:38;95567.66;;;10.89;61.33
70127;BME280;57491;42.694;23.314;2023-05-13T00:24:06;95572.53;;;10.84;60.70
70127;BME280;57491;42.694;23.314;2023-05-13T00:26:33;95560.03;;;10.80;60.09
70127;BME280;57491;42.694;23.314;2023-05-13T00:29:01;95568.34;;;10.75;59.32
70127;BME280;57491;42.694;23.314;2023-05-13T00:31:28;95557.75;;;10.85;59.49
70127;BME280;57491;42.694;23.314;2023-05-13T00:33:55;95558.84;;;10.90;58.73
70127;BME280;57491;42.694;23.314;2023-05-13T00:36:22;95563.06;;;10.91;58.89
70127;BME280;57491;42.694;23.314;2023-05-13T00:38:52;95551.13;;;10.74;58.50
70127;BME280;57491;42.694;23.314;2023-05-13T00:41:19;95554.88;;;10.71;57.63
70127;BME280;57491;42.694;23.314;2023-05-13T00:43:46;95551.16;;;10.66;58.06
70127;BME280;57491;42.694;23.314;2023-05-13T00:46:15;95548.06;;;10.62;57.88
70127;BME280;57491;42.694;23.314;2023-05-13T00:48:42;95552.47;;;10.62;58.15
70127;BME280;57491;42.694;23.314;2023-05-13T00:51:09;95557.31;;;10.65;58.55
70127;BME280;57491;42.694;23.314;2023-05-13T00:53:37;95545.00;;;10.51;57.88
70127;BME280;57491;42.694;23.314;2023-05-13T00:56:05;95549.56;;;10.49;59.04
70127;BME280;57491;42.694;23.314;2023-05-13T00:58:32;95546.47;;;10.45;58.67
70127;BME280;57491;42.694;23.314;2023-05-13T01:01:06;95543.41;;;10.42;58.84
70127;BME280;57491;42.694;23.314;2023-05-13T01:03:45;95541.50;;;10.11;59.62
70127;BME280;57491;42.694;23.314;2023-05-13T01:06:19;95539.72;;;10.04;60.79
70127;BME280;57491;42.694;23.314;2023-05-13T01:08:53;95536.91;;;10.13;62.17
70127;BME280;57491;42.694;23.314;2023-05-13T01:11:25;95546.06;;;10.17;62.39
70127;BME280;57491;42.694;23.314;2023-05-13T01:13:58;95562.44;;;10.18;64.80
70127;BME280;57491;42.694;23.314;2023-05-13T01:16:30;95569.41;;;10.01;66.13
70127;BME280;57491;42.694;23.314;2023-05-13T01:19:04;95571.69;;;9.88;68.97
70127;BME280;57491;42.694;23.314;2023-05-13T01:21:36;95571.34;;;9.91;70.62
70127;BME280;57491;42.694;23.314;2023-05-13T01:24:05;95584.53;;;9.98;70.28
70127;BME280;57491;42.694;23.314;2023-05-13T01:26:32;95591.03;;;9.85;71.63
70127;BME280;57491;42.694;23.314;2023-05-13T01:28:59;95590.03;;;10.03;71.50
70127;BME280;57491;42.694;23.314;2023-05-13T01:31:26;95599.63;;;10.10;71.47
70127;BME280;57491;42.694;23.314;2023-05-13T01:33:55;95602.06;;;10.12;70.06
70127;BME280;57491;42.694;23.314;2023-05-13T01:36:23;95597.38;;;10.15;70.98
70127;BME280;57491;42.694;23.314;2023-05-13T01:38:53;95592.97;;;10.32;70.16
70127;BME280;57491;42.694;23.314;2023-05-13T01:41:22;95590.03;;;10.43;70.07
70127;BME280;57491;42.694;23.314;2023-05-13T01:43:49;95594.41;;;10.51;70.00
70127;BME280;57491;42.694;23.314;2023-05-13T01:46:16;95591.81;;;10.51;68.05
70127;BME280;57491;42.694;23.314;2023-05-13T01:48:43;95586.59;;;10.51;68.00
70127;BME280;57491;42.694;23.314;2023-05-13T01:51:10;95584.66;;;10.53;65.87
70127;BME280;57491;42.694;23.314;2023-05-13T01:53:37;95586.09;;;10.71;67.37
70127;BME280;57491;42.694;23.314;2023-05-13T01:56:07;95589.16;;;10.75;65.57
70127;BME280;57491;42.694;23.314;2023-05-13T01:58:34;95591.25;;;10.80;64.27
70127;BME280;57491;42.694;23.314;2023-05-13T02:01:02;95583.25;;;10.89;63.55
70127;BME280;57491;42.694;23.314;2023-05-13T02:03:29;95582.59;;;10.87;59.10
70127;BME280;57491;42.694;23.314;2023-05-13T02:05:56;95584.13;;;10.65;58.04
70127;BME280;57491;42.694;23.314;2023-05-13T02:08:23;95593.34;;;10.84;62.99
70127;BME280;57491;42.694;23.314;2023-05-13T02:10:55;95589.25;;;10.98;64.56
70127;BME280;57491;42.694;23.314;2023-05-13T02:13:24;95594.88;;;11.09;63.32
70127;BME280;57491;42.694;23.314;2023-05-13T02:15:52;95579.56;;;11.14;59.08
70127;BME280;57491;42.694;23.314;2023-05-13T02:18:19;95572.88;;;11.20;61.03
70127;BME280;57491;42.694;23.314;2023-05-13T02:20:46;95587.41;;;11.37;60.49
70127;BME280;57491;42.694;23.314;2023-05-13T02:23:13;95584.47;;;11.40;58.22
70127;BME280;57491;42.694;23.314;2023-05-13T02:25:41;95583.66;;;11.40;57.84
70127;BME280;57491;42.694;23.314;2023-05-13T02:28:08;95587.72;;;11.42;57.73
70127;BME280;57491;42.694;23.314;2023-05-13T02:30:36;95595.66;;;11.49;60.29
70127;BME280;57491;42.694;23.314;2023-05-13T02:33:06;95598.25;;;11.49;57.96
70127;BME280;57491;42.694;23.314;2023-05-13T02:35:33;95602.84;;;11.47;57.74
70127;BME280;57491;42.694;23.314;2023-05-13T02:38:00;95600.22;;;11.47;57.74
70127;BME280;57491;42.694;23.314;2023-05-13T02:40:28;95601.09;;;11.31;58.05
70127;BME280;57491;42.694;23.314;2023-05-13T02:42:55;95598.94;;;11.04;60.29
70127;BME280;57491;42.694;23.314;2023-05-13T02:45:22;95598.63;;;11.07;60.79
70127;BME280;57491;42.694;23.314;2023-05-13T02:47:51;95591.97;;;11.04;61.11
70127;BME280;57491;42.694;23.314;2023-05-13T02:50:18;95601.25;;;11.07;63.92
70127;BME280;57491;42.694;23.314;2023-05-13T02:52:45;95604.47;;;11.09;63.34
70127;BME280;57491;42.694;23.314;2023-05-13T02:55:12;95605.94;;;11.11;64.59
70127;BME280;57491;42.694;23.314;2023-05-13T02:57:40;95606.56;;;11.13;64.02
70127;BME280;57491;42.694;23.314;2023-05-13T03:00:08;95618.66;;;10.98;65.04
70127;BME280;57491;42.694;23.314;2023-05-13T03:02:36;95620.78;;;10.95;65.65
70127;BME280;57491;42.694;23.314;2023-05-13T03:05:05;95623.19;;;11.04;66.43
70127;BME280;57491;42.694;23.314;2023-05-13T03:07:33;95617.66;;;10.99;65.91
70127;BME280;57491;42.694;23.314;2023-05-13T03:10:00;95623.97;;;11.13;65.10
70127;BME280;57491;42.694;23.314;2023-05-13T03:12:27;95623.81;;;11.14;65.67
70127;BME280;57491;42.694;23.314;2023-05-13T03:14:54;95626.06;;;11.26;66.15
70127;BME280;57491;42.694;23.314;2023-05-13T03:17:21;95628.78;;;11.32;66.34
70127;BME280;57491;42.694;23.314;2023-05-13T03:19:49;95622.91;;;11.38;66.25
70127;BME280;57491;42.694;23.314;2023-05-13T03:22:18;95617.81;;;11.45;65.83
70127;BME280;57491;42.694;23.314;2023-05-13T03:24:45;95618.63;;;11.45;64.48
70127;BME280;57491;42.694;23.314;2023-05-13T03:27:12;95620.53;;;11.51;65.10
70127;BME280;57491;42.694;23.314;2023-05-13T03:29:39;95632.84;;;11.57;64.22
70127;BME280;57491;42.694;23.314;2023-05-13T03:32:06;95610.28;;;11.50;62.03
70127;BME280;57491;42.694;23.314;2023-05-13T03:34:33;95633.34;;;11.61;59.54
70127;BME280;57491;42.694;23.314;2023-05-13T03:37:02;95634.34;;;11.60;58.34
70127;BME280;57491;42.694;23.314;2023-05-13T03:39:31;95633.00;;;11.64;57.00
70127;BME280;57491;42.694;23.314;2023-05-13T03:41:58;95635.44;;;11.66;58.57
70127;BME280;57491;42.694;23.314;2023-05-13T03:44:25;95649.28;;;11.66;56.40
70127;BME280;57491;42.694;23.314;2023-05-13T03:46:52;95647.97;;;11.62;55.71
70127;BME280;57491;42.694;23.314;2023-05-13T03:49:19;95644.78;;;11.52;54.36
70127;BME280;57491;42.694;23.314;2023-05-13T03:51:46;95639.25;;;11.55;56.33
70127;BME280;57491;42.694;23.314;2023-05-13T03:54:13;95637.28;;;11.57;56.66
70127;BME280;57491;42.694;23.314;2023-05-13T03:56:42;95654.31;;;11.68;55.58
70127;BME280;57491;42.694;23.314;2023-05-13T03:59:09;95665.88;;;11.65;54.13
70127;BME280;57491;42.694;23.314;2023-05-13T04:01:36;95662.31;;;11.66;55.36
70127;BME280;57491;42.694;23.314;2023-05-13T04:04:03;95658.38;;;11.70;56.44
70127;BME280;57491;42.694;23.314;2023-05-13T04:06:30;95663.59;;;11.70;55.89
70127;BME280;57491;42.694;23.314;2023-05-13T04:08:58;95679.00;;;11.80;57.41
70127;BME280;57491;42.694;23.314;2023-05-13T04:11:25;95681.28;;;11.83;55.34
70127;BME280;57491;42.694;23.314;2023-05-13T04:13:54;95663.38;;;11.80;55.93
70127;BME280;57491;42.694;23.314;2023-05-13T04:16:21;95670.97;;;11.89;57.31
70127;BME280;57491;42.694;23.314;2023-05-13T04:18:48;95684.50;;;11.93;55.90
70127;BME280;57491;42.694;23.314;2023-05-13T04:21:15;95682.16;;;11.98;56.34
70127;BME280;57491;42.694;23.314;2023-05-13T04:23:42;95670.66;;;11.92;55.16
70127;BME280;57491;42.694;23.314;2023-05-13T04:26:12;95683.16;;;11.97;54.88
70127;BME280;57491;42.694;23.314;2023-05-13T04:28:39;95690.63;;;12.00;54.90
70127;BME280;57491;42.694;23.314;2023-05-13T04:31:07;95679.69;;;12.04;55.84
70127;BME280;57491;42.694;23.314;2023-05-13T04:33:36;95679.84;;;12.03;55.12
70127;BME280;57491;42.694;23.314;2023-05-13T04:36:04;95690.69;;;12.15;55.57
70127;BME280;57491;42.694;23.314;2023-05-13T04:38:31;95694.34;;;12.28;54.83
70127;BME280;57491;42.694;23.314;2023-05-13T04:40:58;95694.22;;;12.22;55.71
70127;BME280;57491;42.694;23.314;2023-05-13T04:43:25;95698.31;;;12.39;54.78
70127;BME280;57491;42.694;23.314;2023-05-13T04:45:52;95694.88;;;12.61;53.85
70127;BME280;57491;42.694;23.314;2023-05-13T04:48:20;95691.34;;;12.77;54.44
70127;BME280;57491;42.694;23.314;2023-05-13T04:50:49;95697.00;;;12.80;52.43
70127;BME280;57491;42.694;23.314;2023-05-13T04:53:17;95687.56;;;12.79;51.19
70127;BME280;57491;42.694;23.314;2023-05-13T04:55:45;95694.31;;;12.74;50.26
70127;BME280;57491;42.694;23.314;2023-05-13T04:58:12;95687.91;;;12.76;51.88
70127;BME280;57491;42.694;23.314;2023-05-13T05:00:39;95685.94;;;12.78;51.42
70127;BME280;57491;42.694;23.314;2023-05-13T05:03:07;95675.69;;;12.77;53.25
70127;BME280;57491;42.694;23.314;2023-05-13T05:05:36;95682.00;;;12.82;52.75
70127;BME280;57491;42.694;23.314;2023-05-13T05:08:03;95677.97;;;12.94;53.22
70127;BME280;57491;42.694;23.314;2023-05-13T05:10:30;95677.25;;;13.01;52.06
70127;BME280;57491;42.694;23.314;2023-05-13T05:12:57;95676.03;;;13.26;52.03
70127;BME280;57491;42.694;23.314;2023-05-13T05:15:24;95682.22;;;13.54;51.95
70127;BME280;57491;42.694;23.314;2023-05-13T05:17:51;95689.41;;;13.67;53.06
70127;BME280;57491;42.694;23.314;2023-05-13T05:20:19;95692.19;;;13.80;51.18
70127;BME280;57491;42.694;23.314;2023-05-13T05:22:47;95684.88;;;13.75;50.33
70127;BME280;57491;42.694;23.314;2023-05-13T05:25:15;95688.03;;;13.85;50.88
70127;BME280;57491;42.694;23.314;2023-05-13T05:27:42;95692.22;;;14.01;50.44
70127;BME280;57491;42.694;23.314;2023-05-13T05:30:10;95698.22;;;14.16;50.34
70127;BME280;57491;42.694;23.314;2023-05-13T05:32:37;95688.53;;;14.32;49.88
70127;BME280;57491;42.694;23.314;2023-05-13T05:35:05;95684.00;;;14.40;49.42
70127;BME280;57491;42.694;23.314;2023-05-13T05:37:32;95695.66;;;14.59;50.27
70127;BME280;57491;42.694;23.314;2023-05-13T05:40:00;95690.84;;;14.62;50.30
70127;BME280;57491;42.694;23.314;2023-05-13T05:42:28;95689.06;;;14.69;48.67
70127;BME280;57491;42.694;23.314;2023-05-13T05:44:55;95696.09;;;14.69;48.45
70127;BME280;57491;42.694;23.314;2023-05-13T05:47:22;95687.59;;;14.60;49.49
70127;BME280;57491;42.694;23.314;2023-05-13T05:49:49;95694.03;;;14.58;48.70
70127;BME280;57491;42.694;23.314;2023-05-13T05:52:16;95697.91;;;14.68;49.08
70127;BME280;57491;42.694;23.314;2023-05-13T05:54:43;95698.22;;;14.80;51.19
70127;BME280;57491;42.694;23.314;2023-05-13T05:57:11;95700.75;;;14.95;49.91
70127;BME280;57491;42.694;23.314;2023-05-13T05:59:39;95697.00;;;15.04;47.50
70127;BME280;57491;42.694;23.314;2023-05-13T06:02:06;95707.03;;;15.00;47.83
70127;BME280;57491;42.694;23.314;2023-05-13T06:04:33;95702.03;;;15.05;47.39
70127;BME280;57491;42.694;23.314;2023-05-13T06:07:00;95695.53;;;14.95;46.30
70127;BME280;57491;42.694;23.314;2023-05-13T06:09:27;95697.44;;;15.07;47.41
70127;BME280;57491;42.694;23.314;2023-05-13T06:11:54;95692.22;;;15.14;47.83
70127;BME280;57491;42.694;23.314;2023-05-13T06:14:22;95691.69;;;15.25;47.25
70127;BME280;57491;42.694;23.314;2023-05-13T06:16:50;95701.00;;;15.34;45.79
70127;BME280;57491;42.694;23.314;2023-05-13T06:19:17;95713.72;;;15.37;46.77
70127;BME280;57491;42.694;23.314;2023-05-13T06:21:44;95697.25;;;15.43;45.88
70127;BME280;57491;42.694;23.314;2023-05-13T06:24:11;95704.09;;;15.44;45.33
70127;BME280;57491;42.694;23.314;2023-05-13T06:26:37;95707.75;;;15.50;45.20
70127;BME280;57491;42.694;23.314;2023-05-13T06:29:04;95703.41;;;15.63;44.00
70127;BME280;57491;42.694;23.314;2023-05-13T06:31:33;95709.50;;;15.71;43.77
70127;BME280;57491;42.694;23.314;2023-05-13T06:34:00;95719.06;;;15.85;43.62
70127;BME280;57491;42.694;23.314;2023-05-13T06:36:27;95714.81;;;15.84;41.17
70127;BME280;57491;42.694;23.314;2023-05-13T06:38:54;95715.22;;;15.87;45.39
70127;BME280;57491;42.694;23.314;2023-05-13T06:41:21;95702.75;;;15.96;42.37
70127;BME280;57491;42.694;23.314;2023-05-13T06:43:48;95711.00;;;15.99;40.69
70127;BME280;57491;42.694;23.314;2023-05-13T06:46:15;95708.22;;;16.01;41.33
70127;BME280;57491;42.694;23.314;2023-05-13T06:48:43;95702.38;;;16.12;43.02
70127;BME280;57491;42.694;23.314;2023-05-13T06:51:11;95705.47;;;16.35;41.88
70127;BME280;57491;42.694;23.314;2023-05-13T06:53:38;95708.94;;;16.42;41.86
70127;BME280;57491;42.694;23.314;2023-05-13T06:56:05;95720.63;;;16.46;39.12
70127;BME280;57491;42.694;23.314;2023-05-13T06:58:32;95714.97;;;16.49;40.67
70127;BME280;57491;42.694;23.314;2023-05-13T07:00:59;95712.81;;;16.66;39.92
70127;BME280;57491;42.694;23.314;2023-05-13T07:03:27;95713.44;;;16.81;39.44
70127;BME280;57491;42.694;23.314;2023-05-13T07:05:55;95713.25;;;16.96;39.36
70127;BME280;57491;42.694;23.314;2023-05-13T07:08:22;95710.59;;;17.09;37.97
70127;BME280;57491;42.694;23.314;2023-05-13T07:10:49;95716.66;;;17.16;37.39
70127;BME280;57491;42.694;23.314;2023-05-13T07:13:17;95718.28;;;17.17;37.65
70127;BME280;57491;42.694;23.314;2023-05-13T07:15:44;95726.34;;;17.35;37.82
70127;BME280;57491;42.694;23.314;2023-05-13T07:18:12;95720.22;;;17.55;35.44
70127;BME280;57491;42.694;23.314;2023-05-13T07:20:38;95729.56;;;17.44;35.55
70127;BME280;57491;42.694;23.314;2023-05-13T07:23:07;95741.91;;;17.30;36.64
70127;BME280;57491;42.694;23.314;2023-05-13T07:25:34;95745.75;;;17.41;37.10
70127;BME280;57491;42.694;23.314;2023-05-13T07:28:01;95742.06;;;17.62;36.23
70127;BME280;57491;42.694;23.314;2023-05-13T07:30:28;95738.81;;;17.73;37.38
70127;BME280;57491;42.694;23.314;2023-05-13T07:32:55;95730.22;;;17.97;37.20
70127;BME280;57491;42.694;23.314;2023-05-13T07:35:22;95724.50;;;18.13;37.18
70127;BME280;57491;42.694;23.314;2023-05-13T07:37:49;95728.91;;;18.26;36.91
70127;BME280;57491;42.694;23.314;2023-05-13T07:40:18;95720.63;;;18.22;35.93
70127;BME280;57491;42.694;23.314;2023-05-13T07:42:45;95722.00;;;18.32;36.21
70127;BME280;57491;42.694;23.314;2023-05-13T07:45:12;95723.69;;;18.51;34.96
70127;BME280;57491;42.694;23.314;2023-05-13T07:47:39;95727.47;;;18.68;35.13
70127;BME280;57491;42.694;23.314;2023-05-13T07:50:07;95728.72;;;18.90;35.64
70127;BME280;57491;42.694;23.314;2023-05-13T07:52:34;95736.22;;;18.87;34.27
70127;BME280;57491;42.694;23.314;2023-05-13T07:55:01;95731.25;;;19.03;33.77
70127;BME280;57491;42.694;23.314;2023-05-13T07:57:29;95728.22;;;19.25;34.37
70127;BME280;57491;42.694;23.314;2023-05-13T07:59:57;95718.63;;;19.55;34.13
70127;BME280;57491;42.694;23.314;2023-05-13T08:02:25;95727.47;;;19.85;33.64
70127;BME280;57491;42.694;23.314;2023-05-13T08:04:52;95730.09;;;20.03;35.36
70127;BME280;57491;42.694;23.314;2023-05-13T08:07:19;95718.59;;;20.28;33.22
70127;BME280;57491;42.694;23.314;2023-05-13T08:09:46;95726.09;;;20.31;32.62
70127;BME280;57491;42.694;23.314;2023-05-13T08:12:13;95720.91;;;20.06;33.34
70127;BME280;57491;42.694;23.314;2023-05-13T08:14:41;95719.16;;;19.82;34.37
70127;BME280;57491;42.694;23.314;2023-05-13T08:17:09;95714.91;;;19.99;33.60
70127;BME280;57491;42.694;23.314;2023-05-13T08:19:37;95712.03;;;20.00;33.65
70127;BME280;57491;42.694;23.314;2023-05-13T08:22:04;95699.84;;;19.99;34.05
70127;BME280;57491;42.694;23.314;2023-05-13T08:24:31;95706.25;;;20.10;34.75
70127;BME280;57491;42.694;23.314;2023-05-13T08:26:58;95698.53;;;20.09;33.34
70127;BME280;57491;42.694;23.314;2023-05-13T08:29:25;95704.75;;;20.32;34.13
70127;BME280;57491;42.694;23.314;2023-05-13T08:31:53;95707.69;;;20.54;35.33
70127;BME280;57491;42.694;23.314;2023-05-13T08:34:21;95705.16;;;20.89;33.76
70127;BME280;57491;42.694;23.314;2023-05-13T08:36:48;95701.38;;;20.97;32.93
70127;BME280;57491;42.694;23.314;2023-05-13T08:39:14;95697.09;;;20.84;34.30
70127;BME280;57491;42.694;23.314;2023-05-13T08:41:43;95690.31;;;21.00;33.42
70127;BME280;57491;42.694;23.314;2023-05-13T08:44:11;95690.94;;;21.36;34.27
70127;BME280;57491;42.694;23.314;2023-05-13T08:46:40;95683.59;;;21.50;34.53
70127;BME280;57491;42.694;23.314;2023-05-13T08:49:12;95686.84;;;21.92;33.79
70127;BME280;57491;42.694;23.314;2023-05-13T08:51:39;95687.56;;;21.88;31.90
70127;BME280;57491;42.694;23.314;2023-05-13T08:54:08;95672.34;;;21.95;32.29
70127;BME280;57491;42.694;23.314;2023-05-13T08:56:35;95679.59;;;21.99;31.47
70127;BME280;57491;42.694;23.314;2023-05-13T08:59:02;95681.56;;;21.80;32.70
70127;BME280;57491;42.694;23.314;2023-05-13T09:01:30;95675.81;;;21.84;32.68
70127;BME280;57491;42.694;23.314;2023-05-13T09:04:01;95670.00;;;21.70;33.06
70127;BME280;57491;42.694;23.314;2023-05-13T09:06:31;95665.13;;;21.78;33.09
70127;BME280;57491;42.694;23.314;2023-05-13T09:08:58;95658.59;;;21.69;34.01
70127;BME280;57491;42.694;23.314;2023-05-13T09:11:27;95666.22;;;21.54;34.38
70127;BME280;57491;42.694;23.314;2023-05-13T09:13:58;95668.22;;;21.75;34.90
70127;BME280;57491;42.694;23.314;2023-05-13T09:16:27;95663.00;;;22.04;35.02
70127;BME280;57491;42.694;23.314;2023-05-13T09:18:56;95655.41;;;22.52;34.51
70127;BME280;57491;42.694;23.314;2023-05-13T09:21:25;95661.66;;;22.75;34.74
70127;BME280;57491;42.694;23.314;2023-05-13T09:24:02;95660.50;;;23.21;33.49
70127;BME280;57491;42.694;23.314;2023-05-13T09:26:31;95660.72;;;23.52;32.75
70127;BME280;57491;42.694;23.314;2023-05-13T09:29:20;95667.53;;;24.09;31.40
70127;BME280;57491;42.694;23.314;2023-05-13T09:31:49;95651.59;;;24.09;31.08
70127;BME280;57491;42.694;23.314;2023-05-13T09:34:24;95652.81;;;24.44;31.09
70127;BME280;57491;42.694;23.314;2023-05-13T09:37:02;95659.84;;;24.61;30.63
70127;BME280;57491;42.694;23.314;2023-05-13T09:39:33;95652.81;;;25.03;29.74
70127;BME280;57491;42.694;23.314;2023-05-13T09:42:04;95656.44;;;25.29;29.24
70127;BME280;57491;42.694;23.314;2023-05-13T09:44:31;95639.09;;;25.68;29.55
70127;BME280;57491;42.694;23.314;2023-05-13T09:46:58;95645.31;;;25.84;29.42
70127;BME280;57491;42.694;23.314;2023-05-13T09:49:27;95640.50;;;25.86;28.15
70127;BME280;57491;42.694;23.314;2023-05-13T09:51:54;95636.78;;;25.87;28.70
70127;BME280;57491;42.694;23.314;2023-05-13T09:54:21;95637.63;;;25.98;28.11
70127;BME280;57491;42.694;23.314;2023-05-13T09:56:57;95644.84;;;26.12;29.96
70127;BME280;57491;42.694;23.314;2023-05-13T09:59:25;95643.25;;;26.01;28.17
70127;BME280;57491;42.694;23.314;2023-05-13T10:01:53;95634.69;;;25.99;28.83
70127;BME280;57491;42.694;23.314;2023-05-13T10:04:25;95632.44;;;26.38;27.67
70127;BME280;57491;42.694;23.314;2023-05-13T10:06:51;95634.06;;;26.80;27.79
70127;BME280;57491;42.694;23.314;2023-05-13T10:09:19;95635.69;;;27.11;26.46
70127;BME280;57491;42.694;23.314;2023-05-13T10:11:50;95633.59;;;26.88;26.90
70127;BME280;57491;42.694;23.314;2023-05-13T10:14:17;95628.47;;;26.71;27.03
70127;BME280;57491;42.694;23.314;2023-05-13T10:16:45;95629.88;;;25.44;28.56
70127;BME280;57491;42.694;23.314;2023-05-13T10:19:13;95635.06;;;25.19;29.14
70127;BME280;57491;42.694;23.314;2023-05-13T10:21:40;95639.44;;;25.35;29.21
70127;BME280;57491;42.694;23.314;2023-05-13T10:24:08;95638.00;;;25.22;28.74
70127;BME280;57491;42.694;23.314;2023-05-13T10:26:36;95630.13;;;25.38;29.51
70127;BME280;57491;42.694;23.314;2023-05-13T10:29:05;95635.22;;;25.91;28.83
70127;BME280;57491;42.694;23.314;2023-05-13T10:31:32;95623.66;;;26.43;27.60
70127;BME280;57491;42.694;23.314;2023-05-13T10:34:00;95619.66;;;26.71;27.24
70127;BME280;57491;42.694;23.314;2023-05-13T10:36:52;95620.22;;;27.08;27.41
70127;BME280;57491;42.694;23.314;2023-05-13T10:39:48;95615.00;;;26.00;27.69
70127;BME280;57491;42.694;23.314;2023-05-13T10:42:36;95617.59;;;25.80;28.87
70127;BME280;57491;42.694;23.314;2023-05-13T10:45:06;95627.75;;;25.88;28.87
70127;BME280;57491;42.694;23.314;2023-05-13T10:47:34;95628.06;;;26.07;29.66
70127;BME280;57491;42.694;23.314;2023-05-13T10:50:04;95618.88;;;26.60;28.53
70127;BME280;57491;42.694;23.314;2023-05-13T10:52:42;95621.25;;;27.32;27.16
70127;BME280;57491;42.694;23.314;2023-05-13T10:55:16;95626.84;;;27.31;27.83
70127;BME280;57491;42.694;23.314;2023-05-13T10:58:08;95623.31;;;27.61;27.80
70127;BME280;57491;42.694;23.314;2023-05-13T11:00:38;95628.66;;;27.66;27.41
70127;BME280;57491;42.694;23.314;2023-05-13T11:03:25;95631.81;;;27.78;26.60
70127;BME280;57491;42.694;23.314;2023-05-13T11:06:13;95631.53;;;27.79;26.79
70127;BME280;57491;42.694;23.314;2023-05-13T11:08:40;95628.41;;;27.47;26.53
70127;BME280;57491;42.694;23.314;2023-05-13T11:11:22;95627.38;;;27.33;26.26
70127;BME280;57491;42.694;23.314;2023-05-13T11:13:49;95619.41;;;27.13;27.14
70127;BME280;57491;42.694;23.314;2023-05-13T11:16:17;95610.88;;;26.95;26.65
70127;BME280;57491;42.694;23.314;2023-05-13T11:18:45;95611.38;;;26.47;28.39
70127;BME280;57491;42.694;23.314;2023-05-13T11:21:12;95607.66;;;26.78;27.58
70127;BME280;57491;42.694;23.314;2023-05-13T11:23:52;95605.00;;;26.78;27.12
70127;BME280;57491;42.694;23.314;2023-05-13T11:26:21;95591.66;;;27.14;27.72
70127;BME280;57491;42.694;23.314;2023-05-13T11:28:56;95605.28;;;26.97;26.88
70127;BME280;57491;42.694;23.314;2023-05-13T11:31:26;95593.78;;;26.46;27.17
70127;BME280;57491;42.694;23.314;2023-05-13T11:34:07;95592.34;;;25.98;27.79
70127;BME280;57491;42.694;23.314;2023-05-13T11:36:36;95584.97;;;26.25;27.78
70127;BME280;57491;42.694;23.314;2023-05-13T11:39:05;95577.78;;;26.21;26.98
70127;BME280;57491;42.694;23.314;2023-05-13T11:41:33;95576.81;;;25.74;27.54
70127;BME280;57491;42.694;23.314;2023-05-13T11:44:01;95576.88;;;25.32;28.71
70127;BME280;57491;42.694;23.314;2023-05-13T11:46:32;95576.66;;;25.39;28.67
70127;BME280;57491;42.694;23.314;2023-05-13T11:48:59;95572.44;;;25.48;28.64
70127;BME280;57491;42.694;23.314;2023-05-13T11:51:26;95571.28;;;26.01;27.42
70127;BME280;57491;42.694;23.314;2023-05-13T11:54:01;95571.38;;;26.32;27.23
70127;BME280;57491;42.694;23.314;2023-05-13T11:56:28;95564.19;;;26.73;26.08
70127;BME280;57491;42.694;23.314;2023-05-13T11:59:13;95567.38;;;26.59;27.16
70127;BME280;57491;42.694;23.314;2023-05-13T12:01:42;95561.00;;;26.86;26.00
70127;BME280;57491;42.694;23.314;2023-05-13T12:04:09;95566.75;;;27.38;25.79
70127;BME280;57491;42.694;23.314;2023-05-13T12:06:42;95556.84;;;27.49;26.10
70127;BME280;57491;42.694;23.314;2023-05-13T12:09:11;95564.97;;;26.98;26.33
70127;BME280;57491;42.694;23.314;2023-05-13T12:11:38;95569.00;;;26.50;27.04
70127;BME280;57491;42.694;23.314;2023-05-13T12:14:07;95555.81;;;25.88;27.99
70127;BME280;57491;42.694;23.314;2023-05-13T12:16:34;95564.16;;;25.50;28.70
70127;BME280;57491;42.694;23.314;2023-05-13T12:19:06;95568.81;;;25.22;28.61
70127;BME280;57491;42.694;23.314;2023-05-13T12:21:33;95558.81;;;24.93;29.09
70127;BME280;57491;42.694;23.314;2023-05-13T12:24:00;95555.31;;;24.55;29.82
70127;BME280;57491;42.694;23.314;2023-05-13T12:26:27;95561.81;;;24.69;30.58
70127;BME280;57491;42.694;23.314;2023-05-13T12:28:58;95555.97;;;25.09;30.42
70127;BME280;57491;42.694;23.314;2023-05-13T12:31:25;95560.84;;;25.22;29.77
70127;BME280;57491;42.694;23.314;2023-05-13T12:33:53;95546.56;;;25.39;30.19
70127;BME280;57491;42.694;23.314;2023-05-13T12:36:23;95548.69;;;25.42;30.35
70127;BME280;57491;42.694;23.314;2023-05-13T12:38:58;95545.94;;;25.26;29.97
70127;BME280;57491;42.694;23.314;2023-05-13T12:41:26;95539.78;;;25.16;29.78
70127;BME280;57491;42.694;23.314;2023-05-13T12:43:58;95542.19;;;25.17;29.57
70127;BME280;57491;42.694;23.314;2023-05-13T12:46:26;95543.00;;;25.23;29.72
70127;BME280;57491;42.694;23.314;2023-05-13T12:48:55;95531.84;;;25.21;29.80
70127;BME280;57491;42.694;23.314;2023-05-13T12:51:24;95536.78;;;25.02;29.31
70127;BME280;57491;42.694;23.314;2023-05-13T12:53:51;95529.03;;;24.96;29.60
70127;BME280;57491;42.694;23.314;2023-05-13T12:56:19;95529.09;;;24.69;29.96
70127;BME280;57491;42.694;23.314;2023-05-13T12:58:48;95515.16;;;24.52;29.98